• Join FlightAware (Why Join?)
  • Login
  • US Flag 
02:06PM EDT


 

Airport Tracker/Info


-or-


 

Live Flight TrackerFlight Track Log ✈ SKQ45 ✈ 26-Apr-2013 ✈ KBUY - KPAH

Flight Track Log - Related Links

Times and Time Zones

All times are in EDT time to prevent confusion due to time zone crossing. See the SKQ45 flight status page for this flight to view local times or setup timezone preferences in your user account.

Time Position Orientation Groundspeed Altitude Reporting Facility
EDT Latitude Longitude Course Direction KTS MPH feet Rate Location/Type
08:23PM 36.0756 -79.6406 276° West 149 171 6,600  Level Atlanta Center
08:24PM 36.0842 -79.7094 279° West 173 199 7,900 1,200 Climbing Atlanta Center
08:25PM 36.0925 -79.7708 280° West 184 212 9,100 1,140 Climbing Atlanta Center
08:26PM 36.1011 -79.8344 280° West 184 212 10,200 900 Climbing Atlanta Center
08:27PM 36.1114 -79.8981 281° West 184 212 11,000 780 Climbing Atlanta Center
08:28PM 36.1121 -79.9228 282° West  Level FlightAware Approximate
08:28PM 36.1175 -79.9569 277° West 190 219 11,800  Level Atlanta Center
08:29PM 36.1208 -79.9998 276° West  Level FlightAware Approximate
08:29PM 36.1281 -80.0233 281° West 190 219 12,500  Level Atlanta Center
08:30PM 36.1386 -80.0897 281° West 201 231 13,300 720 Climbing Atlanta Center
08:31PM 36.1469 -80.1561 279° West 201 231 14,000 720 Climbing Atlanta Center
08:32PM 36.1578 -80.2328 280° West 201 231 14,800 780 Climbing Atlanta Center
08:33PM 36.1661 -80.3017 279° West 201 231 15,600 720 Climbing Atlanta Center
08:34PM 36.1786 -80.3731 282° West 201 231 16,300 660 Climbing Atlanta Center
08:35PM 36.1850 -80.4425 277° West 201 231 17,000 660 Climbing Atlanta Center
08:36PM 36.1931 -80.5011 280° West 201 231 17,700 480 Climbing Atlanta Center
08:37PM 36.2031 -80.5625 281° West 201 231 18,000 540 Climbing Atlanta Center
08:38PM 36.2133 -80.6367 280° West 201 231 18,800 780 Climbing Atlanta Center
08:39PM 36.2233 -80.6981 281° West 196 226 19,600 600 Climbing Atlanta Center
08:40PM 36.2314 -80.7619 279° West 188 216 20,100 180 Climbing Atlanta Center
08:41PM 36.2436 -80.8283 283° West 199 229 20,000 -60 Descending Atlanta Center
08:42PM 36.2539 -80.9028 280° West 214 246 20,000  Level Atlanta Center
08:43PM 36.2642 -80.9797 279° West 223 257 20,000  Level Atlanta Center
08:44PM 36.2744 -81.0592 279° West 228 262 20,000  Level Atlanta Center
08:45PM 36.2847 -81.1358 279° West 233 268 20,000  Level Atlanta Center
08:46PM 36.2969 -81.2153 281° West 240 276 20,000  Level Atlanta Center
08:47PM 36.3069 -81.2872 280° West 235 270 20,000  Level Atlanta Center
08:48PM 36.3169 -81.3667 279° West 235 270 20,000  Level Atlanta Center
08:49PM 36.3269 -81.4436 279° West 235 270 20,000  Level Atlanta Center
08:50PM 36.3369 -81.5233 279° West 235 270 20,000  Level Atlanta Center
08:51PM 36.3469 -81.6028 279° West 235 270 20,000  Level Atlanta Center
08:52PM 36.3567 -81.6797 279° West 235 270 20,000  Level Atlanta Center
08:53PM 36.3667 -81.7569 279° West 235 270 20,000  Level Atlanta Center
08:54PM 36.3764 -81.8367 279° West 230 265 20,000  Level Atlanta Center
08:55PM 36.3861 -81.9136 279° West 235 270 20,000  Level Atlanta Center
08:56PM 36.3958 -81.9883 279° West 235 270 20,000  Level Atlanta Center
08:57PM 36.4053 -82.0653 279° West 230 265 20,000  Level Atlanta Center
08:58PM 36.4147 -82.1425 279° West 230 265 20,000  Level Atlanta Center
08:59PM 36.4244 -82.2197 279° West 235 270 20,000  Level Atlanta Center
09:00PM 36.4339 -82.2994 278° West 235 270 20,000  Level Atlanta Center
09:01PM 36.4433 -82.3742 279° West 235 270 20,000  Level Atlanta Center
09:02PM 36.4525 -82.4489 279° West 227 261 20,000  Level Atlanta Center
09:03PM 36.4619 -82.5233 279° West 222 255 20,000  Level Atlanta Center
09:04PM 36.4711 -82.6033 278° West 217 250 20,000  Level Atlanta Center
09:05PM 36.4803 -82.6756 279° West 217 250 20,000  Level Atlanta Center
09:06PM 36.4894 -82.7503 279° West 217 250 20,000  Level Atlanta Center
09:07PM 36.4964 -82.8197 277° West 217 250 20,000  Level Atlanta Center
09:08PM 36.5033 -82.8919 277° West 217 250 20,000  Level Atlanta Center
09:09PM 36.5144 -82.9617 281° West 217 250 20,000  Level Atlanta Center
09:10PM 36.5214 -83.0311 277° West 217 250 20,000  Level Atlanta Center
09:11PM 36.5303 -83.1008 279° West 212 244 20,000  Level Atlanta Center
09:14PM 36.5508 -83.2606 279° West 205 236 20,000  Level Indianapolis Center
09:15PM 36.5597 -83.3314 279° West 207 238 20,000  Level Indianapolis Center
09:16PM 36.5672 -83.4025 278° West 207 238 20,000  Level Indianapolis Center
09:17PM 36.5756 -83.4733 278° West 206 237 20,000  Level Indianapolis Center
09:18PM 36.5842 -83.5444 279° West 206 237 20,000  Level Indianapolis Center
09:19PM 36.5917 -83.6158 277° West 208 239 20,000  Level Indianapolis Center
09:20PM 36.6011 -83.7003 278° West 210 242 20,000  Level Indianapolis Center
09:21PM 36.6092 -83.7714 278° West 208 239 20,000  Level Indianapolis Center
09:22PM 36.6169 -83.8431 278° West 208 239 20,000  Level Indianapolis Center
09:23PM 36.6256 -83.9169 278° West 213 245 20,000  Level Indianapolis Center
09:24PM 36.6331 -83.9908 277° West 213 245 20,000  Level Indianapolis Center
09:25PM 36.6422 -84.0653 279° West 216 249 20,000  Level Indianapolis Center
09:26PM 36.6500 -84.1397 277° West 217 250 20,000  Level Indianapolis Center
09:27PM 36.6583 -84.2150 278° West 219 252 20,000  Level Indianapolis Center
09:28PM 36.6653 -84.2889 277° West 216 249 20,000  Level Indianapolis Center
09:29PM 36.6747 -84.3639 279° West 218 251 20,000  Level Indianapolis Center
09:30PM 36.6822 -84.4494 276° West 214 246 20,000  Level Indianapolis Center
09:31PM 36.6897 -84.5125 278° West 216 249 20,000  Level Indianapolis Center
09:32PM 36.6978 -84.5986 277° West 210 242 20,000  Level Indianapolis Center
09:33PM 36.7061 -84.6706 278° West 210 242 20,000  Level Indianapolis Center
09:34PM 36.7142 -84.7422 278° West 209 241 20,000  Level Indianapolis Center
09:35PM 36.7211 -84.8136 277° West 209 241 20,000  Level Indianapolis Center
09:36PM 36.7278 -84.8836 277° West 206 237 20,000  Level Indianapolis Center
09:37PM 36.7344 -84.9544 277° West 205 236 20,000  Level Indianapolis Center
09:38PM 36.7425 -85.0256 278° West 208 239 20,000  Level Indianapolis Center
09:39PM 36.7497 -85.0967 277° West 206 237 20,000  Level Indianapolis Center
09:40PM 36.7567 -85.1678 277° West 206 237 20,000  Level Indianapolis Center
09:41PM 36.7653 -85.2508 277° West 203 234 20,000  Level Indianapolis Center
09:42PM 36.7719 -85.3217 277° West 204 235 20,000  Level Indianapolis Center
09:43PM 36.7781 -85.3922 276° West 206 237 20,000  Level Indianapolis Center
09:44PM 36.7794 -85.4222 273° West 212 244 20,000  Level Memphis Center
09:45PM 36.7908 -85.4992 280° West 212 244 20,000  Level Memphis Center
09:46PM 36.7978 -85.5714 277° West 217 250 20,000  Level Memphis Center
09:47PM 36.8044 -85.6358 277° West 217 250 20,000  Level Memphis Center
09:48PM 36.8092 -85.7056 275° West 217 250 20,000  Level Memphis Center
09:49PM 36.8158 -85.7750 277° West 217 250 20,000  Level Memphis Center
09:50PM 36.8228 -85.8472 277° West 217 250 20,000  Level Memphis Center
09:51PM 36.8314 -85.9167 279° West 217 250 20,000  Level Memphis Center
09:52PM 36.8361 -85.9864 275° West 211 243 20,000  Level Memphis Center
09:53PM 36.8428 -86.0561 277° West 211 243 20,000  Level Memphis Center
09:54PM 36.8494 -86.1308 276° West 211 243 20,000  Level Memphis Center
09:55PM 36.8558 -86.2006 277° West 211 243 20,000  Level Memphis Center
09:56PM 36.8622 -86.2678 277° West 206 237 20,000  Level Memphis Center
09:57PM 36.8689 -86.3372 277° West 206 237 20,000 -240 Level Memphis Center
09:58PM 36.8753 -86.4069 277° West 206 237 19,600 -480 Descending Memphis Center
09:59PM 36.8817 -86.4819 276° West 211 243 19,100 -540 Descending Memphis Center
10:00PM 36.8883 -86.5594 276° West 218 251 18,600 -600 Descending Memphis Center
10:00PM 36.8889 -86.5750 273° West 218 251 18,400 -540 Descending Memphis Center
10:01PM 36.8900 -86.6164 272° West 215 247 18,200 -480 Descending Memphis Center
10:02PM 36.8964 -86.6889 276° West 216 249 17,700 -300 Descending Memphis Center
10:03PM 36.9050 -86.7689 278° West 217 250 17,600 -360 Descending Memphis Center
10:04PM 36.9117 -86.8542 276° West 216 249 17,000 -540 Descending Memphis Center
10:05PM 36.9178 -86.9264 276° West 220 253 16,500 -540 Descending Memphis Center
10:06PM 36.9239 -87.0014 276° West 210 242 16,000 -600 Descending Memphis Center
10:07PM 36.9278 -87.0714 274° West 208 239 15,400 -600 Descending Memphis Center
10:08PM 36.9339 -87.1411 276° West 195 224 14,900 -540 Descending Memphis Center
10:09PM 36.9419 -87.2136 278° West 205 236 14,400 -540 Descending Memphis Center
10:10PM 36.9481 -87.2886 276° West 225 259 13,900 -540 Descending Memphis Center
10:11PM 36.9542 -87.3714 275° West 232 267 13,400 -540 Descending Memphis Center
10:12PM 36.9603 -87.4517 275° West 238 274 12,900 -540 Descending Memphis Center
10:13PM 36.9664 -87.5372 275° West 242 278 12,400 -540 Descending Memphis Center
10:14PM 36.9767 -87.6172 279° West 252 290 11,900 -540 Descending Memphis Center
10:15PM 36.9803 -87.6978 273° West 239 275 11,400 -600 Descending Memphis Center
10:16PM 36.9883 -87.7728 278° West 232 267 10,800 -540 Descending Memphis Center
10:17PM 36.9939 -87.8506 275° West 227 261 10,400 -540 Descending Memphis Center
10:18PM 36.9997 -87.9256 276° West 227 261 9,800 -780 Descending Memphis Center
10:19PM 37.0056 -88.0086 275° West 233 268 8,900 -840 Descending Memphis Center
10:20PM 37.0131 -88.0836 277° West 233 268 8,200 -840 Descending Memphis Center
10:21PM 37.0208 -88.1667 277° West 233 268 7,300 -840 Descending Memphis Center
10:22PM 37.0242 -88.2444 273° West 233 268 6,600 -900 Descending Memphis Center
10:23PM 37.0297 -88.3247 275° West 233 268 5,600 -1,020 Descending Memphis Center
10:24PM 37.0353 -88.4106 275° West 233 268 4,600 -960 Descending Memphis Center
10:25PM 37.0428 -88.4908 277° West 238 274 3,700 -960 Descending Memphis Center
10:26PM 37.0461 -88.5661 273° West 232 267 2,700 -780 Descending Memphis Center
10:27PM 37.0489 -88.6311 273° West 213 245 2,200 -600 Descending Memphis Center
10:28PM 37.0478 -88.6908 269° West 194 223 1,600 -420 Descending Memphis Center
10:29PM 37.0442 -88.7353 264° West 159 183 1,400 -180 Descending Memphis Center
10:30PM 37.0406 -88.7872 265° West 154 177 1,300 -120 Descending Memphis Center